Time;durP1;ratioP1;P1;durP2;ratioP2;P2;SDS_P1;SDS_P2;PMS_P1;PMS_P2;Temp;Humidity;BMP_temperature;BMP_pressure;BME280_temperature;BME280_humidity;BME280_pressure;Samples;Min_cycle;Max_cycle;Signal;HPM_P1;HPM_P2
2022/05/11 00:01:15;;;;;;;15.50;10.07;;;;;;;13.23;100.00;95086.25;5122491;27;20192;-79
2022/05/11 00:03:42;;;;;;;14.90;10.67;;;;;;;13.22;100.00;95084.69;5121334;27;20219;-78
2022/05/11 00:06:10;;;;;;;17.47;10.70;;;;;;;13.29;100.00;95088.78;5122682;27;20657;-78
2022/05/11 00:08:37;;;;;;;17.83;11.03;;;;;;;13.32;100.00;95090.94;5121619;27;20282;-78
2022/05/11 00:11:04;;;;;;;20.67;11.80;;;;;;;13.33;100.00;95089.91;5126448;27;20607;-78
2022/05/11 00:13:31;;;;;;;24.37;12.07;;;;;;;13.24;100.00;95074.81;5121134;27;20307;-79
2022/05/11 00:15:58;;;;;;;22.20;11.73;;;;;;;13.23;100.00;95074.03;5122146;27;20187;-79
2022/05/11 00:18:25;;;;;;;22.07;12.27;;;;;;;13.26;100.00;95072.78;5122721;27;20310;-79
2022/05/11 00:20:52;;;;;;;20.97;11.30;;;;;;;13.24;100.00;95067.00;5123571;27;20242;-79
2022/05/11 00:23:20;;;;;;;19.87;11.87;;;;;;;13.21;100.00;95049.97;5121737;27;20205;-79
2022/05/11 00:25:48;;;;;;;19.77;11.47;;;;;;;13.27;100.00;95064.72;5119905;27;20239;-79
2022/05/11 00:28:15;;;;;;;15.53;9.23;;;;;;;13.11;100.00;95060.13;5119477;27;20222;-78
2022/05/11 00:30:42;;;;;;;13.80;9.03;;;;;;;12.90;100.00;95060.63;5122703;27;20192;-78
2022/05/11 00:33:13;;;;;;;17.00;9.27;;;;;;;12.79;100.00;95056.13;5123531;27;20218;-79
2022/05/11 00:35:40;;;;;;;12.37;8.10;;;;;;;12.78;100.00;95050.16;5121821;27;20199;-79
2022/05/11 00:38:07;;;;;;;11.80;8.60;;;;;;;12.77;100.00;95051.16;5123157;27;20199;-79
2022/05/11 00:40:41;;;;;;;17.70;9.30;;;;;;;12.79;100.00;95035.28;5122839;27;20196;-79
2022/05/11 00:43:10;;;;;;;16.87;9.80;;;;;;;12.82;100.00;95046.06;5121429;27;20596;-79
2022/05/11 00:45:38;;;;;;;15.47;9.57;;;;;;;12.79;100.00;95043.91;5123778;27;20192;-79
2022/05/11 00:50:49;;;;;;;17.60;9.60;;;;;;;12.85;100.00;95043.00;5123178;27;20191;-79
2022/05/11 00:53:18;;;;;;;17.03;9.60;;;;;;;12.87;100.00;95046.19;5123783;27;20654;-79
2022/05/11 00:55:50;;;;;;;15.57;9.77;;;;;;;12.87;100.00;95051.41;5124861;27;20661;-79
2022/05/11 00:58:23;;;;;;;12.27;8.67;;;;;;;12.86;100.00;95052.44;5120214;27;20224;-79
2022/05/11 01:00:50;;;;;;;16.43;8.97;;;;;;;12.77;100.00;95060.78;5120835;27;20204;-78
2022/05/11 01:03:20;;;;;;;15.37;8.50;;;;;;;12.77;100.00;95055.56;5118419;27;20661;-79
2022/05/11 01:05:47;;;;;;;12.60;7.93;;;;;;;12.80;100.00;95058.53;5122093;27;20196;-78
2022/05/11 01:08:17;;;;;;;13.57;8.10;;;;;;;12.79;100.00;95064.75;5123248;27;20196;-79
2022/05/11 01:10:47;;;;;;;11.40;7.80;;;;;;;12.79;100.00;95064.75;5118880;27;20196;-80
2022/05/11 01:13:15;;;;;;;18.57;9.63;;;;;;;12.71;100.00;95066.88;5124208;27;20227;-79
2022/05/11 01:15:46;;;;;;;20.73;10.83;;;;;;;12.73;100.00;95070.06;5123566;27;20192;-79
2022/05/11 01:18:13;;;;;;;29.07;13.90;;;;;;;12.71;100.00;95066.88;5118067;27;20206;-79
2022/05/11 01:20:40;;;;;;;25.47;12.80;;;;;;;12.69;100.00;95058.50;5121737;27;20243;-79
2022/05/11 01:23:15;;;;;;;28.60;14.33;;;;;;;12.62;100.00;95068.19;5121552;27;20248;-79
2022/05/11 01:25:43;;;;;;;27.30;14.47;;;;;;;12.59;100.00;95068.63;5122270;27;20195;-79
2022/05/11 01:28:12;;;;;;;26.10;13.67;;;;;;;12.52;100.00;95060.91;5120977;27;20224;-80
2022/05/11 01:30:41;;;;;;;21.40;12.70;;;;;;;12.50;100.00;95061.13;5120741;28;20191;-81
2022/05/11 01:33:08;;;;;;;20.43;11.53;;;;;;;12.45;100.00;95058.38;5120581;28;20234;-80
2022/05/11 01:35:45;;;;;;;17.50;11.23;;;;;;;12.40;100.00;95057.44;5120458;28;20199;-80
2022/05/11 01:38:38;;;;;;;21.03;10.50;;;;;;;12.36;100.00;95067.50;5123914;27;20191;-79
2022/05/11 01:41:06;;;;;;;25.13;11.00;;;;;;;12.31;100.00;95058.75;5120795;28;20195;-79
2022/05/11 01:43:36;;;;;;;18.43;11.73;;;;;;;12.30;100.00;95052.75;5118804;28;20192;-79
2022/05/11 01:46:03;;;;;;;21.87;11.83;;;;;;;12.40;100.00;95057.44;5124351;28;20191;-79
2022/05/11 01:48:31;;;;;;;20.73;12.00;;;;;;;12.39;100.00;95059.25;5120452;28;20658;-80
2022/05/11 01:50:58;;;;;;;20.70;11.87;;;;;;;12.38;100.00;95062.88;5119048;28;20196;-80
2022/05/11 01:53:26;;;;;;;15.20;11.30;;;;;;;12.37;100.00;95069.13;5120768;28;20737;-79
2022/05/11 01:55:53;;;;;;;14.70;10.60;;;;;;;12.34;100.00;95059.13;5120649;28;20755;-79
2022/05/11 01:58:22;;;;;;;15.80;11.20;;;;;;;12.31;100.00;95050.94;5122140;28;20198;-78
2022/05/11 02:00:49;;;;;;;26.13;12.47;;;;;;;12.29;100.00;95053.78;5120488;28;20196;-78
2022/05/11 02:03:18;;;;;;;20.10;12.60;;;;;;;12.31;100.00;95050.94;5120679;28;20196;-78
2022/05/11 02:08:30;;;;;;;30.13;15.50;;;;;;;12.18;100.00;95053.72;5120323;27;20236;-79
2022/05/11 02:10:58;;;;;;;27.23;15.17;;;;;;;12.16;100.00;95056.53;5121059;28;20199;-79
2022/05/11 02:13:28;;;;;;;24.53;15.20;;;;;;;12.15;100.00;95054.91;5120485;28;20318;-78
2022/05/11 02:15:55;;;;;;;22.63;12.23;;;;;;;12.17;100.00;95052.09;5125188;28;20192;-79
2022/05/11 02:18:22;;;;;;;20.37;12.43;;;;;;;12.16;100.00;95055.72;5121480;27;20210;-79
2022/05/11 02:20:49;;;;;;;18.47;9.80;;;;;;;12.06;100.00;95053.63;5123590;27;20258;-78
2022/05/11 02:23:17;;;;;;;20.40;9.27;;;;;;;11.98;100.00;95056.50;5124818;27;20191;-79
2022/05/11 02:25:45;;;;;;;19.57;11.07;;;;;;;12.01;100.00;95050.06;5124847;27;20283;-78
2022/05/11 02:28:12;;;;;;;20.43;10.60;;;;;;;11.97;100.00;95047.13;5124531;27;20585;-78
2022/05/11 02:30:44;;;;;;;16.60;11.23;;;;;;;11.89;100.00;95035.16;5123318;27;20199;-78
2022/05/11 02:33:11;;;;;;;20.53;11.30;;;;;;;11.93;100.00;95043.34;5125222;27;20211;-78
2022/05/11 02:35:39;;;;;;;16.63;10.50;;;;;;;11.86;100.00;95035.59;5124131;27;20199;-77
2022/05/11 02:38:09;;;;;;;16.17;10.40;;;;;;;11.79;100.00;95026.25;5123124;27;20204;-78
2022/05/11 02:40:38;;;;;;;17.33;11.53;;;;;;;11.87;100.00;95047.59;5125156;27;20264;-78
2022/05/11 02:43:06;;;;;;;22.53;11.50;;;;;;;11.82;100.00;95042.25;5122728;27;20191;-77
2022/05/11 02:45:35;;;;;;;16.40;10.50;;;;;;;11.81;100.00;95045.88;5125292;27;20199;-78
2022/05/11 02:48:06;;;;;;;19.60;10.30;;;;;;;11.84;100.00;95057.66;5123754;27;20593;-78
2022/05/11 02:50:36;;;;;;;14.43;8.63;;;;;;;11.80;100.00;95057.28;5120564;27;20206;-78
2022/05/11 02:53:07;;;;;;;17.80;10.70;;;;;;;11.80;100.00;95053.91;5121162;27;20277;-78
2022/05/11 02:55:35;;;;;;;17.50;11.00;;;;;;;11.80;100.00;95059.88;5123743;27;20635;-78
2022/05/11 02:58:02;;;;;;;18.10;11.20;;;;;;;11.78;100.00;95061.13;5123678;27;20199;-78
2022/05/11 03:00:28;;;;;;;17.13;9.30;;;;;;;11.73;100.00;95061.78;5123389;27;20202;-78
2022/05/11 03:02:55;;;;;;;12.93;9.43;;;;;;;11.77;100.00;95065.56;5119027;27;20956;-77
2022/05/11 03:05:24;;;;;;;13.97;9.87;;;;;;;11.76;100.00;95063.16;5123638;27;20210;-78
2022/05/11 03:07:50;;;;;;;16.83;9.30;;;;;;;11.75;100.00;95067.53;5124034;27;20199;-78
2022/05/11 03:10:17;;;;;;;18.73;9.87;;;;;;;11.84;100.00;95070.66;5126951;27;20195;-78
2022/05/11 03:12:44;;;;;;;13.93;8.77;;;;;;;11.83;100.00;95058.69;5120117;27;20231;-78
2022/05/11 03:15:12;;;;;;;15.47;7.10;;;;;;;11.78;100.00;95077.53;5123466;27;20195;-79
2022/05/11 03:17:39;;;;;;;10.37;7.60;;;;;;;11.72;100.00;95075.00;5125237;27;20192;-78
2022/05/11 03:20:08;;;;;;;14.70;7.87;;;;;;;11.69;100.00;95084.03;5125696;27;20231;-78
2022/05/11 03:22:37;;;;;;;12.77;7.40;;;;;;;11.65;100.00;95075.03;5125159;27;21167;-77
2022/05/11 03:25:05;;;;;;;15.63;7.93;;;;;;;11.75;100.00;95080.56;5122452;27;20637;-78
2022/05/11 03:27:32;;;;;;;10.13;7.30;;;;;;;11.73;100.00;95085.19;5124121;27;20199;-79
2022/05/11 03:29:59;;;;;;;20.50;9.17;;;;;;;11.81;100.00;95078.91;5121664;27;20195;-78
2022/05/11 03:35:11;;;;;;;15.63;9.27;;;;;;;11.90;100.00;95082.84;5122031;27;20272;-80
2022/05/11 03:37:39;;;;;;;13.07;8.87;;;;;;;11.86;100.00;95072.03;5122630;27;20849;-80
2022/05/11 03:40:08;;;;;;;12.93;9.57;;;;;;;11.94;100.00;95086.63;5121201;27;20651;-79
2022/05/11 03:42:36;;;;;;;15.23;10.20;;;;;;;12.00;100.00;95079.75;5126011;27;20282;-80
2022/05/11 03:45:09;;;;;;;14.97;10.27;;;;;;;11.94;100.00;95073.59;5124609;27;20239;-81
2022/05/11 03:47:36;;;;;;;15.10;9.90;;;;;;;11.92;100.00;95084.22;5124923;27;20192;-81
2022/05/11 03:50:03;;;;;;;18.30;10.73;;;;;;;11.99;100.00;95083.34;5126088;27;20188;-82
2022/05/11 03:52:30;;;;;;;30.23;15.80;;;;;;;11.94;100.00;95077.00;5122418;27;20237;-82
2022/05/11 03:54:58;;;;;;;33.40;17.17;;;;;;;12.01;100.00;95092.53;5123599;27;20584;-82
2022/05/11 03:57:25;;;;;;;35.67;18.97;;;;;;;11.99;100.00;95085.97;5121779;27;20192;-81
2022/05/11 03:59:52;;;;;;;40.20;17.77;;;;;;;11.99;100.00;95084.16;5120929;27;20203;-80
2022/05/11 04:02:19;;;;;;;29.17;17.13;;;;;;;12.05;100.00;95100.72;5123528;27;20657;-81
2022/05/11 04:04:46;;;;;;;38.10;17.53;;;;;;;12.07;100.00;95099.50;5120561;27;20253;-81
2022/05/11 04:07:15;;;;;;;31.57;16.47;;;;;;;12.07;100.00;95085.66;5127268;27;20199;-76
2022/05/11 04:09:41;;;;;;;24.77;13.87;;;;;;;12.07;100.00;95083.06;5123228;27;20204;-74
2022/05/11 04:12:11;;;;;;;21.47;14.13;;;;;;;12.07;100.00;95096.91;5121986;27;20650;-73
2022/05/11 04:14:37;;;;;;;24.40;14.60;;;;;;;12.12;100.00;95093.66;5121489;27;20220;-73
2022/05/11 04:17:05;;;;;;;23.17;13.33;;;;;;;12.14;100.00;95108.06;5122771;27;20192;-74
2022/05/11 04:19:31;;;;;;;27.73;14.63;;;;;;;12.19;100.00;95110.81;5123798;27;20199;-75
2022/05/11 04:21:58;;;;;;;25.23;14.60;;;;;;;12.21;100.00;95116.59;5119670;27;20220;-76
2022/05/11 04:24:25;;;;;;;27.83;15.17;;;;;;;12.26;100.00;95111.56;5117844;27;20247;-81
2022/05/11 04:26:52;;;;;;;19.53;13.67;;;;;;;12.33;100.00;95119.28;5131681;27;20219;-80
2022/05/11 04:29:21;;;;;;;28.63;14.13;;;;;;;12.37;100.00;95121.25;5125138;27;20196;-81
2022/05/11 04:31:54;;;;;;;25.43;13.90;;;;;;;12.46;100.00;95125.16;5126606;27;20709;-73
2022/05/11 04:34:21;;;;;;;17.30;12.47;;;;;;;12.57;100.00;95126.25;5121620;27;20531;-74
2022/05/11 04:36:48;;;;;;;18.20;11.50;;;;;;;12.58;100.00;95122.63;5123749;27;20282;-73
2022/05/11 04:39:15;;;;;;;11.80;8.10;;;;;;;12.60;100.00;95122.38;5120582;27;20195;-73
2022/05/11 04:41:42;;;;;;;12.47;7.93;;;;;;;12.65;100.00;95138.16;5121930;27;20212;-74
2022/05/11 04:44:09;;;;;;;20.60;8.47;;;;;;;12.66;100.00;95137.16;5120643;27;20189;-74
2022/05/11 04:46:37;;;;;;;13.03;8.00;;;;;;;12.66;100.00;95135.34;5120562;27;20616;-74
2022/05/11 04:49:20;;;;;;;19.53;8.60;;;;;;;12.66;100.00;95137.97;5120281;27;20218;-74
2022/05/11 04:51:49;;;;;;;13.73;7.93;;;;;;;12.72;100.00;95137.09;5122674;27;20191;-73
2022/05/11 04:54:16;;;;;;;12.00;8.13;;;;;;;12.65;100.00;95141.59;5126814;27;20214;-74
2022/05/11 04:56:44;;;;;;;10.87;7.87;;;;;;;12.65;100.00;95135.56;5126552;27;20571;-73
2022/05/11 04:59:12;;;;;;;9.70;7.20;;;;;;;12.66;100.00;95139.78;5128545;27;20613;-74
2022/05/11 05:01:40;;;;;;;10.93;7.17;;;;;;;12.69;99.53;95137.53;5127341;27;20203;-74
2022/05/11 05:04:07;;;;;;;14.20;7.30;;;;;;;12.73;98.06;95146.50;5123039;27;20187;-73
2022/05/11 05:06:34;;;;;;;9.77;6.30;;;;;;;12.69;96.60;95144.56;5126772;27;20617;-73
2022/05/11 05:09:03;;;;;;;11.37;7.00;;;;;;;12.74;97.26;95147.28;5122184;27;20185;-74
2022/05/11 05:11:30;;;;;;;9.30;6.90;;;;;;;12.74;99.72;95142.09;5127185;27;20199;-74
2022/05/11 05:13:57;;;;;;;12.63;7.87;;;;;;;12.82;100.00;95142.59;5122966;27;20220;-74
2022/05/11 05:16:24;;;;;;;15.80;9.53;;;;;;;12.88;100.00;95146.13;5122089;27;20195;-73
2022/05/11 05:18:53;;;;;;;14.47;8.23;;;;;;;12.91;99.54;95151.69;5125613;27;20200;-74
2022/05/11 05:21:20;;;;;;;17.33;8.17;;;;;;;12.91;99.16;95143.06;5123730;27;20215;-73
2022/05/11 05:23:47;;;;;;;21.30;9.23;;;;;;;12.93;98.66;95149.66;5120958;27;20192;-74
2022/05/11 05:26:14;;;;;;;15.50;8.40;;;;;;;13.02;96.99;95153.56;5121108;27;20267;-74
2022/05/11 05:31:28;;;;;;;15.90;9.67;;;;;;;13.10;98.83;95157.72;5119721;28;20217;-74
2022/05/11 05:33:59;;;;;;;15.00;9.33;;;;;;;13.17;98.10;95163.66;5121771;28;20260;-74
2022/05/11 05:36:27;;;;;;;16.17;9.20;;;;;;;13.20;97.36;95167.63;5122574;27;20196;-74
2022/05/11 05:38:54;;;;;;;22.60;10.20;;;;;;;13.19;97.66;95168.66;5119306;28;20191;-73
2022/05/11 05:41:20;;;;;;;17.70;9.50;;;;;;;13.17;98.34;95158.44;5121240;28;20199;-73
2022/05/11 05:43:47;;;;;;;16.33;9.50;;;;;;;13.23;99.55;95167.19;5119530;28;20269;-74
2022/05/11 05:46:17;;;;;;;23.60;12.43;;;;;;;13.25;100.00;95167.75;5122784;28;20201;-76
2022/05/11 05:48:44;;;;;;;17.60;9.23;;;;;;;13.36;100.00;95167.03;5120729;28;20254;-73
2022/05/11 05:51:16;;;;;;;15.07;8.43;;;;;;;13.27;100.00;95155.28;5120928;27;20195;-73
2022/05/11 05:53:44;;;;;;;16.60;9.30;;;;;;;13.46;100.00;95175.09;5123951;27;20204;-77
2022/05/11 05:56:13;;;;;;;14.17;9.07;;;;;;;13.48;100.00;95178.28;5124211;27;20210;-76
2022/05/11 05:58:40;;;;;;;25.30;9.63;;;;;;;13.51;98.99;95183.06;5127047;27;20217;-76
2022/05/11 06:01:07;;;;;;;14.40;8.93;;;;;;;13.50;96.80;95186.69;5125868;27;20191;-76
2022/05/11 06:03:36;;;;;;;17.13;9.53;;;;;;;13.59;96.82;95183.53;5122640;27;20214;-75
2022/05/11 06:06:04;;;;;;;16.40;10.20;;;;;;;13.68;96.20;95191.06;5125852;27;20196;-75
2022/05/11 06:08:32;;;;;;;20.43;9.97;;;;;;;13.76;95.20;95195.97;5121116;27;20674;-76
2022/05/11 06:10:59;;;;;;;17.17;9.90;;;;;;;13.82;93.75;95192.47;5128957;27;20203;-74
2022/05/11 06:13:27;;;;;;;17.03;9.97;;;;;;;13.98;92.57;95192.59;5126437;27;20196;-74
2022/05/11 06:15:55;;;;;;;156.00;21.67;;;;;;;14.04;91.88;95196.13;5126769;27;20305;-74
2022/05/11 06:18:24;;;;;;;31.60;11.77;;;;;;;14.07;90.94;95199.09;5125006;27;20188;-74
2022/05/11 06:20:51;;;;;;;23.43;9.73;;;;;;;14.15;90.98;95198.75;5123231;27;20259;-73
2022/05/11 06:23:19;;;;;;;58.37;11.83;;;;;;;14.24;89.83;95204.44;5126133;27;20219;-75
2022/05/11 06:25:49;;;;;;;14.00;9.70;;;;;;;14.37;86.20;95214.69;5124897;27;20203;-75
2022/05/11 06:28:16;;;;;;;14.43;8.77;;;;;;;14.37;86.27;95214.69;5124469;27;20192;-74
2022/05/11 06:30:43;;;;;;;15.77;9.87;;;;;;;14.29;87.25;95212.41;5126109;27;20199;-74
2022/05/11 06:33:10;;;;;;;43.03;12.13;;;;;;;14.35;87.70;95206.28;5125252;27;20196;-74
2022/05/11 06:35:37;;;;;;;24.33;8.37;;;;;;;14.44;85.10;95209.38;5123851;27;20644;-74
2022/05/11 06:38:06;;;;;;;279.47;30.90;;;;;;;14.52;86.23;95211.63;5126625;27;20195;-75
2022/05/11 06:40:33;;;;;;;35.63;10.20;;;;;;;14.60;85.50;95209.47;5124728;27;20592;-82
2022/05/11 06:43:03;;;;;;;42.40;10.97;;;;;;;14.70;85.23;95209.69;5127704;27;20202;-76
2022/05/11 06:45:30;;;;;;;161.23;20.30;;;;;;;14.77;83.94;95210.34;5123413;27;20538;-76
2022/05/11 06:47:57;;;;;;;61.43;12.87;;;;;;;14.92;81.37;95215.09;5121133;27;20200;-76
2022/05/11 06:50:26;;;;;;;24.97;8.73;;;;;;;15.01;79.87;95210.31;5125156;27;20199;-77
2022/05/11 06:52:53;;;;;;;13.73;6.40;;;;;;;15.03;79.09;95214.31;5124305;27;20199;-76
2022/05/11 07:00:49;;;;;;;8.40;5.50;;;;;;;15.34;73.92;95213.88;5121362;27;20328;-78
2022/05/11 07:03:17;;;;;;;55.23;9.03;;;;;;;15.40;73.33;95201.66;5128662;27;20199;-76
2022/05/11 07:05:46;;;;;;;32.70;8.17;;;;;;;15.50;72.88;95208.97;5132960;27;20616;-76
2022/05/11 07:08:12;;;;;;;7.93;5.40;;;;;;;15.60;70.04;95207.31;5133124;27;20223;-76
2022/05/11 07:10:42;;;;;;;7.97;4.87;;;;;;;15.62;68.38;95207.06;5124202;27;20195;-76
2022/05/11 07:13:10;;;;;;;52.63;7.93;;;;;;;15.69;65.32;95211.16;5122578;27;20630;-77
2022/05/11 07:15:37;;;;;;;8.43;4.03;;;;;;;15.75;64.47;95215.44;5126489;27;20227;-77
2022/05/11 07:18:04;;;;;;;7.80;4.70;;;;;;;15.68;65.83;95199.06;5125571;27;20199;-77
2022/05/11 07:20:36;;;;;;;9.93;4.40;;;;;;;15.71;65.53;95211.69;5124019;27;20227;-77
2022/05/11 07:23:04;;;;;;;6.70;4.77;;;;;;;15.83;65.16;95201.94;5124179;27;20242;-77
2022/05/11 07:25:32;;;;;;;21.93;5.87;;;;;;;15.93;64.78;95206.56;5121670;27;20191;-76
2022/05/11 07:28:00;;;;;;;16.57;4.73;;;;;;;16.04;65.23;95197.03;5124165;27;20235;-77
2022/05/11 07:30:32;;;;;;;17.00;4.73;;;;;;;16.13;65.74;95193.75;5121328;27;20223;-75
2022/05/11 07:32:59;;;;;;;13.10;5.03;;;;;;;16.30;63.76;95201.66;5119417;27;20227;-77
2022/05/11 07:35:27;;;;;;;12.77;4.77;;;;;;;16.36;64.04;95204.09;5123670;27;20212;-78
2022/05/11 07:37:54;;;;;;;11.13;4.37;;;;;;;16.44;62.10;95203.72;5122653;27;20207;-79
2022/05/11 07:40:22;;;;;;;6.77;4.30;;;;;;;16.48;62.24;95195.34;5122399;27;20192;-79
2022/05/11 07:42:48;;;;;;;6.37;4.20;;;;;;;16.62;61.87;95199.25;5122077;27;20199;-77
2022/05/11 07:45:17;;;;;;;10.80;4.07;;;;;;;16.71;59.45;95187.31;5119278;27;20196;-82
2022/05/11 07:47:46;;;;;;;5.30;3.80;;;;;;;16.75;58.89;95185.78;5124830;27;20200;-78
2022/05/11 07:50:14;;;;;;;7.30;4.00;;;;;;;16.62;59.62;95176.44;5122999;27;20207;-77
2022/05/11 07:52:41;;;;;;;10.00;4.60;;;;;;;16.74;60.85;95186.81;5122168;27;20192;-74
2022/05/11 07:55:08;;;;;;;8.53;4.50;;;;;;;16.87;59.72;95178.59;5120536;27;20716;-80
2022/05/11 08:00:20;;;;;;;8.40;4.50;;;;;;;17.00;60.36;95186.88;5128743;27;20301;-73
2022/05/11 08:02:49;;;;;;;7.30;4.40;;;;;;;16.95;61.58;95181.59;5127580;27;20195;-75
2022/05/11 08:05:18;;;;;;;8.17;4.37;;;;;;;17.06;60.73;95185.13;5123419;27;20199;-77
2022/05/11 08:07:46;;;;;;;8.27;4.23;;;;;;;17.09;60.58;95187.25;5132884;27;20325;-82
2022/05/11 08:10:16;;;;;;;11.13;5.03;;;;;;;17.15;61.73;95181.03;5131046;27;20287;-82
2022/05/11 08:12:43;;;;;;;11.93;5.67;;;;;;;17.23;62.19;95171.94;5130094;27;20207;-81
2022/05/11 08:15:11;;;;;;;11.10;4.93;;;;;;;17.35;61.56;95173.38;5127978;27;20782;-82
2022/05/11 08:17:38;;;;;;;7.97;5.27;;;;;;;17.50;60.45;95163.03;5123051;27;20204;-82
2022/05/11 08:20:14;;;;;;;18.37;6.10;;;;;;;17.61;61.11;95171.81;5126054;27;20718;-81
2022/05/11 08:22:42;;;;;;;13.13;5.20;;;;;;;17.67;60.08;95173.47;5126857;27;20662;-82
2022/05/11 08:25:10;;;;;;;10.27;4.33;;;;;;;17.78;59.28;95166.44;5137425;27;20647;-79
2022/05/11 08:27:38;;;;;;;7.77;4.83;;;;;;;17.95;57.41;95173.16;5123690;27;20739;-83
2022/05/11 08:35:37;;;;;;;24.57;4.97;;;;;;;18.28;54.32;95168.69;5122787;27;20214;-81
2022/05/11 08:38:05;;;;;;;28.92;5.60;;;;;;;18.45;54.01;95171.97;5128410;27;20196;-82
2022/05/11 08:40:52;;;;;;;16.15;7.05;;;;;;;18.52;51.45;95170.75;5129640;27;20203;-82
2022/05/11 08:43:20;;;;;;;10.70;5.35;;;;;;;18.63;52.20;95171.59;5121618;27;20188;-79
2022/05/11 08:45:55;;;;;;;9.38;4.18;;;;;;;18.70;51.15;95165.03;5123231;27;20694;-82
2022/05/11 08:48:33;;;;;;;31.88;6.20;;;;;;;18.81;52.76;95168.53;5122019;27;20540;-79
2022/05/11 08:51:03;;;;;;;13.10;4.75;;;;;;;18.95;52.96;95164.38;5121910;27;20602;-85
2022/05/11 08:53:38;;;;;;;13.00;4.97;;;;;;;19.01;51.74;95165.19;5122035;27;20196;-84
2022/05/11 08:56:13;;;;;;;7.80;4.07;;;;;;;19.04;52.00;95162.84;5121193;27;20289;-85
2022/05/11 08:58:48;;;;;;;15.10;4.50;;;;;;;19.15;51.85;95164.47;5130558;27;20237;-83
2022/05/11 09:01:20;;;;;;;8.63;3.50;;;;;;;19.22;49.64;95175.53;5116107;27;20210;-80
2022/05/11 09:03:52;;;;;;;5.93;2.97;;;;;;;19.16;48.88;95166.03;5122553;27;20257;-82
2022/05/11 09:06:27;;;;;;;5.68;3.30;;;;;;;19.03;49.33;95165.72;5125903;27;20253;-82
2022/05/11 09:08:55;;;;;;;24.90;5.60;;;;;;;19.10;50.00;95169.72;5117437;27;20187;-81
2022/05/11 09:11:28;;;;;;;9.05;3.90;;;;;;;19.30;48.65;95165.56;5125921;27;20194;-80
2022/05/11 09:13:57;;;;;;;5.82;3.40;;;;;;;19.41;47.25;95168.00;5124992;27;20611;-82
2022/05/11 09:16:25;;;;;;;5.18;3.42;;;;;;;19.46;47.73;95169.84;5120457;27;20215;-80
2022/05/11 09:18:53;;;;;;;4.68;3.30;;;;;;;19.55;46.49;95161.16;5125031;27;20195;-82
2022/05/11 09:21:30;;;;;;;5.40;3.45;;;;;;;19.57;47.20;95159.06;5121994;27;20224;-81
2022/05/11 09:24:09;;;;;;;8.23;3.83;;;;;;;19.69;48.33;95154.31;5124031;27;20231;-81
2022/05/11 09:26:39;;;;;;;11.63;4.20;;;;;;;19.90;50.37;95154.34;5117466;27;20270;-82
2022/05/11 09:29:16;;;;;;;10.25;4.13;;;;;;;20.16;48.09;95156.72;5117658;28;20203;-82
2022/05/11 09:31:44;;;;;;;4.20;3.10;;;;;;;20.31;46.58;95140.13;5130803;27;20190;-79
2022/05/11 09:34:14;;;;;;;8.32;3.38;;;;;;;20.49;45.42;95150.09;5122583;28;20200;-82
2022/05/11 09:36:52;;;;;;;10.48;4.15;;;;;;;20.59;46.04;95152.75;5128596;27;20194;-81
2022/05/11 09:39:19;;;;;;;205.50;21.23;;;;;;;20.70;45.46;95142.94;5136821;27;20199;-83
2022/05/11 09:41:49;;;;;;;94.90;10.52;;;;;;;20.84;45.25;95149.22;5123406;28;20583;-82
2022/05/11 09:44:22;;;;;;;6.25;3.60;;;;;;;21.03;42.94;95144.16;5118016;28;20219;-82
2022/05/11 09:46:49;;;;;;;8.45;3.63;;;;;;;21.09;41.92;95135.97;5114401;28;20192;-83
2022/05/11 09:49:27;;;;;;;143.80;14.13;;;;;;;21.04;42.77;95129.88;5129882;27;20207;-82
2022/05/11 09:52:35;;;;;;;66.40;8.75;;;;;;;21.12;43.48;95122.19;5142780;27;20214;-84
2022/05/11 09:55:14;;;;;;;8.93;3.67;;;;;;;21.41;44.13;95119.66;5129001;27;20215;-82
2022/05/11 09:57:41;;;;;;;7.32;3.20;;;;;;;21.70;41.82;95128.44;5127557;28;20652;-83
2022/05/11 10:00:21;;;;;;;12.20;4.10;;;;;;;21.70;42.16;95112.56;5131609;27;20256;-83
2022/05/11 10:02:49;;;;;;;7.18;3.50;;;;;;;;;;5137572;27;20191;-83
2022/05/11 10:05:24;;;;;;;12.35;4.32;;;;;;;22.16;41.49;95117.56;5127448;28;20187;-82
2022/05/11 10:07:56;;;;;;;24.05;5.68;;;;;;;22.31;41.02;95112.13;5121125;28;20203;-82
2022/05/11 10:10:27;;;;;;;10.15;3.78;;;;;;;22.47;41.52;95122.28;5132283;28;20218;-82
2022/05/11 10:13:00;;;;;;;47.78;7.25;;;;;;;22.59;40.15;95106.00;5126013;27;20283;-81
2022/05/11 10:24:17;;;;;;;27.23;5.38;;;;;;;23.34;39.02;95095.56;5122527;28;20682;-82
2022/05/11 10:26:49;;;;;;;13.38;3.65;;;;;;;23.29;39.24;95104.34;5128133;28;20195;-81
2022/05/11 10:29:27;;;;;;;11.15;3.72;;;;;;;23.29;39.20;95098.28;5119081;28;20566;-81
2022/05/11 10:32:05;;;;;;;115.57;12.80;;;;;;;23.65;39.43;95100.16;5115679;27;20192;-81
2022/05/11 10:34:40;;;;;;;9.05;3.42;;;;;;;23.65;37.38;95099.38;5125853;28;20192;-82
2022/05/11 10:37:13;;;;;;;16.38;5.25;;;;;;;23.56;38.24;95101.09;5130790;27;20264;-81
2022/05/11 10:39:52;;;;;;;14.98;3.72;;;;;;;23.48;37.58;95102.53;5120927;27;20203;-80
2022/05/11 10:42:24;;;;;;;9.90;3.50;;;;;;;23.23;37.95;95096.78;5132731;27;20191;-81
2022/05/11 10:45:03;;;;;;;3.42;2.65;;;;;;;23.06;37.33;95110.50;5131932;27;20224;-80
2022/05/11 10:47:43;;;;;;;5.03;2.90;;;;;;;22.82;37.30;95110.53;5120135;27;20224;-81
2022/05/11 10:50:22;;;;;;;7.47;2.70;;;;;;;22.85;37.63;95109.19;5123100;27;20620;-81
2022/05/11 10:53:10;;;;;;;4.80;3.03;;;;;;;23.03;37.13;95108.44;5127511;27;20210;-82
2022/05/11 10:55:49;;;;;;;7.07;2.95;;;;;;;23.00;37.55;95099.16;5125352;27;20298;-81
2022/05/11 10:58:43;;;;;;;5.80;2.90;;;;;;;23.04;38.16;95102.03;5123600;27;20284;-81
2022/05/11 11:01:12;;;;;;;10.68;3.20;;;;;;;23.07;39.38;95104.91;5123970;27;20202;-83
2022/05/11 11:04:06;;;;;;;9.23;3.50;;;;;;;22.99;40.18;95110.84;5126374;27;20214;-81
2022/05/11 11:09:41;;;;;;;8.32;3.63;;;;;;;22.47;43.40;95113.53;5124039;27;20203;-81
2022/05/11 11:12:27;;;;;;;7.75;3.40;;;;;;;22.07;44.86;95122.66;5123794;27;20282;-80
2022/05/11 11:14:56;;;;;;;25.13;5.57;;;;;;;21.92;44.89;95123.56;5124810;27;20539;-82
2022/05/11 11:17:26;;;;;;;8.48;3.33;;;;;;;21.50;44.85;95118.00;5121028;27;20608;-79
2022/05/11 11:19:56;;;;;;;7.47;3.05;;;;;;;21.35;46.31;95120.75;5123036;27;20697;-78
2022/05/11 11:22:23;;;;;;;11.55;3.30;;;;;;;21.17;47.36;95121.38;5118592;27;20191;-79
2022/05/11 11:25:22;;;;;;;17.08;3.95;;;;;;;21.08;47.80;95121.16;5126095;27;20188;-79
2022/05/11 11:28:14;;;;;;;3.35;2.30;;;;;;;20.74;48.89;95122.84;5127730;27;20207;-82
2022/05/11 11:30:42;;;;;;;5.30;2.70;;;;;;;20.62;49.43;95120.50;5126293;27;20668;-82
2022/05/11 11:33:23;;;;;;;5.30;2.70;;;;;;;20.51;49.50;95118.16;5124358;27;20205;-80
2022/05/11 11:35:57;;;;;;;4.38;2.70;;;;;;;20.44;49.70;95120.28;5120337;27;20208;-80
2022/05/11 11:38:28;;;;;;;14.73;3.13;;;;;;;20.50;50.65;95120.00;5128291;27;20198;-80
2022/05/11 11:41:20;;;;;;;82.10;8.30;;;;;;;20.64;50.63;95114.94;5120274;27;20244;-81
2022/05/11 11:44:00;;;;;;;9.80;3.53;;;;;;;20.95;49.41;95113.78;5128669;27;20695;-80
2022/05/11 11:46:33;;;;;;;16.27;5.07;;;;;;;21.23;48.35;95115.78;5124989;27;20187;-80
2022/05/11 11:49:13;;;;;;;7.55;4.03;;;;;;;21.43;46.80;95128.91;5127939;27;20196;-81
2022/05/11 11:51:58;;;;;;;14.13;3.80;;;;;;;21.55;46.90;95133.84;5124419;27;20579;-80
2022/05/11 11:54:46;;;;;;;10.02;2.80;;;;;;;21.60;45.93;95117.16;5126629;27;20202;-81
2022/05/11 11:57:33;;;;;;;5.32;2.85;;;;;;;21.73;45.61;95116.53;5127578;27;20223;-81
2022/05/11 12:00:05;;;;;;;8.60;3.60;;;;;;;21.76;46.28;95116.00;5123699;27;20278;-83
2022/05/11 12:02:38;;;;;;;6.68;3.15;;;;;;;21.85;46.13;95130.19;5126052;27;20219;-81
2022/05/11 12:05:11;;;;;;;6.13;2.90;;;;;;;21.71;45.78;95122.09;5123239;27;20200;-82
2022/05/11 12:16:08;;;;;;;5.55;3.28;;;;;;;21.42;45.60;95142.38;5120196;27;20250;-78
2022/05/11 12:18:38;;;;;;;4.57;3.03;;;;;;;21.19;48.44;95146.47;5122231;27;20192;-77
2022/05/11 12:21:09;;;;;;;10.55;3.42;;;;;;;20.87;50.44;95151.31;5119908;27;20224;-77